Hamilton International Airport


Codes: NZHN/HLZ
Name: Hamilton International Airport
City: Hamilton
Country: New Zealand
Elevation: 172 ft.
Website:
Wikipedia:

Photos at Hamilton International Airport


   Photos courtesy of SpottingLog. You can add your own sightings and photos by signing up for a free trial today.



No photos found.

Weather at Hamilton International Airport


Time (UTC)DescriptionTempratureWindCloud coverageVisibilityPressureHumidity
25-Jun-2024 12:00Overcast Clouds13°C16 mph, SW100%10000m1011hPa76%
25-Jun-2024 15:00Overcast Clouds12°C16 mph, SW100%10000m1011hPa75%
25-Jun-2024 18:00Overcast Clouds11°C16 mph, SW100%10000m1012hPa75%
25-Jun-2024 21:00Overcast Clouds11°C13 mph, SW100%10000m1014hPa77%
26-Jun-2024 00:00Overcast Clouds13°C16 mph, SW92%10000m1015hPa73%
26-Jun-2024 03:00Overcast Clouds13°C16 mph, SW95%10000m1015hPa75%
26-Jun-2024 06:00Overcast Clouds10°C11 mph, SW96%10000m1017hPa87%
26-Jun-2024 09:00Broken Clouds9°C9 mph, SW67%10000m1019hPa91%
26-Jun-2024 12:00Broken Clouds9°C9 mph, SW66%10000m1020hPa85%
26-Jun-2024 15:00Overcast Clouds8°C7 mph, SW93%10000m1020hPa88%
26-Jun-2024 18:00Overcast Clouds8°C7 mph, SW93%10000m1021hPa88%
26-Jun-2024 21:00Few Clouds9°C7 mph, SW17%10000m1023hPa88%
27-Jun-2024 00:00Clear Sky14°C7 mph, S9%10000m1022hPa65%
27-Jun-2024 03:00Clear Sky15°C4 mph, S9%10000m1020hPa61%
27-Jun-2024 06:00Clear Sky9°C4 mph, SW6%10000m1021hPa82%
27-Jun-2024 09:00Clear Sky7°C4 mph, S2%10000m1023hPa87%
27-Jun-2024 12:00Clear Sky5°C4 mph, S2%10000m1023hPa88%
27-Jun-2024 15:00Clear Sky5°C4 mph, S6%10000m1023hPa89%
27-Jun-2024 18:00Clear Sky4°C4 mph, S7%10000m1023hPa90%
27-Jun-2024 21:00Clear Sky6°C4 mph, S6%10000m1023hPa84%
28-Jun-2024 00:00Clear Sky12°C4 mph, SW8%10000m1022hPa64%
28-Jun-2024 03:00Clear Sky14°C4 mph, SW10%10000m1020hPa61%
28-Jun-2024 06:00Scattered Clouds8°C4 mph, SW25%10000m1020hPa87%
28-Jun-2024 09:00Overcast Clouds6°C2 mph, W100%10000m1020hPa92%
28-Jun-2024 12:00Overcast Clouds5°C2 mph, W98%10000m1020hPa92%
28-Jun-2024 15:00Overcast Clouds5°C0 mph, SE99%10000m1020hPa93%
28-Jun-2024 18:00Overcast Clouds5°C2 mph, E100%10000m1019hPa93%
28-Jun-2024 21:00Overcast Clouds7°C2 mph, NE100%10000m1020hPa88%
29-Jun-2024 00:00Overcast Clouds11°C4 mph, N99%10000m1018hPa79%
29-Jun-2024 03:00Light Rain11°C4 mph, N99%10000m1016hPa89%
29-Jun-2024 06:00Light Rain10°C4 mph, NW94%10000m1017hPa97%
29-Jun-2024 09:00Broken Clouds8°C4 mph, SW59%10000m1018hPa94%
29-Jun-2024 12:00Scattered Clouds7°C4 mph, SW33%10000m1019hPa92%
29-Jun-2024 15:00Overcast Clouds9°C4 mph, W100%10000m1019hPa89%
29-Jun-2024 18:00Overcast Clouds6°C7 mph, S90%10000m1019hPa93%
29-Jun-2024 21:00Few Clouds7°C4 mph, S12%10000m1021hPa91%
30-Jun-2024 00:00Clear Sky12°C7 mph, SW10%10000m1020hPa75%
30-Jun-2024 03:00Broken Clouds13°C9 mph, SW75%10000m1018hPa72%
30-Jun-2024 06:00Overcast Clouds9°C4 mph, W87%10000m1019hPa90%
30-Jun-2024 09:00Broken Clouds7°C4 mph, W84%10000m1019hPa91%